LFMU/BZR METAR and TAF weather

Enter ICAO airport designator
Station Type Date Time Source
LFMU METAR 2022/05/23 14:30 UTC NOAA

LFMU 231430Z AUTO 33009KT CAVOK 26/14 Q1007 TEMPO 30015G25KT


Station Type Date Time Source
LFMU Decoded METAR 2022/05/23 14:30 UTC NOAA

Beziers / Vias, France (LFMU) 43-19N 003-21E
May 23, 2022 - 10:30 AM EDT / 2022.05.23 1430 UTC
Wind: from the NNW (330 degrees) at 10 MPH (9 KT):0
Visibility: greater than 7 mile(s):0
Temperature: 78 F (26 C)
Dew Point: 57 F (14 C)
Relative Humidity: 47%
Pressure (altimeter): 29.74 in. Hg (1007 hPa)
ob: LFMU 231430Z AUTO 33009KT CAVOK 26/14 Q1007 TEMPO 30015G25KT
cycle: 14

Station Type Date Time Source
LFMU TAF 2022/05/23 15:22 UTC NOAA

TAF LFMU 231400Z 2315/2415 35012KT 9999 SCT025 BKN040
TEMPO 2315/2317 30015G25KT
BECMG 2411/2413 18010KT
TEMPO 2411/2415 SHRA SCT060CB

Example: see airport list